Ana Sayfa
METAR-TAF:

METAR-TAF

Havaalanları :

Nouakchott, Moritanya

Enlem: 18-18-36N, Boylam: 015-58-11W, yükseklik: 3 m

Güncel hava durumu gözlemi

Rapor saat 08:00 UTC de 41 dakika önce yapıldı.
Rüzgar kuzeydoğudan 3 kt, kuzey ve doğu arasında değişken
Sıcaklık 16°C
Nem 82%
Basınç 1013 hPa
Görüş mesafesi: 7000 m
2000 ft yükseklikte az bulutlu

METAR: GQNO 240800Z 04003KT 360V100 7000 FEW020 16/13 Q1013 NOSIG

Saat: 08:41 (08:41 UTC)

Tahmin

Rapor saat 05:00 UTC de 3 saat ve 41 dakika önce yapıldı.
Ayın 24'si saat 06 UTC'den ayın 25'si saat 12 UTC'ye kadar geçerli Tahmin
Rüzgar kuzey/kuzeybatıdan 10 kt
Görüş mesafesi: 7000 m
Olasılık 30% :
Geçici
ayın 25'si saat 00 UTC'den ayın 25'si saat 06 UTC'ye kadar
1000 ft yükseklikte parçalı çok bulutlu

TAF: GQNO 240500Z 2406/2512 34010KT 7000 NSC PROB30 TEMPO 2500/2506 BKN010

4.000'den fazla havaalanı için hava durumu gözlemleri ve tahminleri (METAR ve TAF raporları).

Kullanılabilir istasyonlar harita üzerinde sarı ve kırmızı noktalarla gösterilir.

İstasyonun adını görmek için fareyi noktanın üzerinde gezdirin.

Sonrasında hava gözlem ve tahminlerini görmek için tıklayın.

Haritayı değiştirmek için: yaklaştırmak için siyah artı işaretli yeşil düğmeye ve uzaklaştırmak için de eksi işaretli düğmeye hızla tıklayın; bitişik haritalar için yeşil okları kullanın.


METAR-TAF: